Time;durP1;ratioP1;P1;durP2;ratioP2;P2;SDS_P1;SDS_P2;PMS_P1;PMS_P2;Temp;Humidity;BMP_temperature;BMP_pressure;BME280_temperature;BME280_humidity;BME280_pressure;Samples;Min_cycle;Max_cycle;Signal;HPM_P1;HPM_P2
2022/06/08 00:00:20;;;;;;;3.65;2.30;;;;;;;;;;5015597;28;20017;-52
2022/06/08 00:02:46;;;;;;;4.28;2.45;;;;;;;;;;5020588;28;20018;-52
2022/06/08 00:05:11;;;;;;;2.40;2.05;;;;;;;;;;5010558;28;20025;-51
2022/06/08 00:07:36;;;;;;;3.58;2.35;;;;;;;;;;5024656;28;20024;-51
2022/06/08 00:10:03;;;;;;;2.88;2.20;;;;;;;;;;5009548;28;20055;-51
2022/06/08 00:12:28;;;;;;;3.78;2.45;;;;;;;;;;5007058;28;20020;-51
2022/06/08 00:14:53;;;;;;;5.05;2.50;;;;;;;;;;5008222;28;20439;-52
2022/06/08 00:17:18;;;;;;;5.32;2.10;;;;;;;;;;5019324;28;20033;-52
2022/06/08 00:19:44;;;;;;;4.72;1.98;;;;;;;;;;5014533;28;20033;-51
2022/06/08 00:22:09;;;;;;;3.30;2.00;;;;;;;;;;5018154;28;20014;-51
2022/06/08 00:24:34;;;;;;;7.78;2.28;;;;;;;;;;5023633;28;20335;-51
2022/06/08 00:27:00;;;;;;;2.45;2.05;;;;;;;;;;5024613;28;20029;-52
2022/06/08 00:29:26;;;;;;;2.97;2.15;;;;;;;;;;5015114;28;20477;-52
2022/06/08 00:31:51;;;;;;;2.53;2.00;;;;;;;;;;5014592;28;20057;-52
2022/06/08 00:34:16;;;;;;;3.00;2.00;;;;;;;;;;5017708;28;20041;-53
2022/06/08 00:36:41;;;;;;;2.10;1.80;;;;;;;;;;5007267;28;20706;-51
2022/06/08 00:39:08;;;;;;;3.38;2.10;;;;;;;;;;5006161;28;20576;-52
2022/06/08 00:41:52;;;;;;;4.03;1.90;;;;;;;;;;5019874;28;20064;-52
2022/06/08 00:44:24;;;;;;;3.20;2.28;;;;;;;;;;5017301;28;20017;-53
2022/06/08 00:46:50;;;;;;;3.08;2.10;;;;;;;;;;5018615;28;20017;-52
2022/06/08 00:49:35;;;;;;;3.03;1.95;;;;;;;;;;5016531;28;20018;-52
2022/06/08 00:52:00;;;;;;;2.58;2.10;;;;;;;;;;5017732;28;20484;-53
2022/06/08 00:54:29;;;;;;;2.60;2.00;;;;;;;;;;5022632;28;20045;-51
2022/06/08 00:56:56;;;;;;;2.78;2.30;;;;;;;;;;5012263;28;20659;-51
2022/06/08 00:59:21;;;;;;;5.22;2.05;;;;;;;;;;5011288;28;20014;-51
2022/06/08 01:01:47;;;;;;;3.33;2.17;;;;;;;;;;5020470;28;20025;-51
2022/06/08 01:04:13;;;;;;;3.10;1.97;;;;;;;;;;5012534;28;20488;-51
2022/06/08 01:06:39;;;;;;;3.33;2.28;;;;;;;;;;5018286;28;20358;-51
2022/06/08 01:09:04;;;;;;;4.03;2.20;;;;;;;;;;5020773;28;20637;-51
2022/06/08 01:11:37;;;;;;;3.72;2.33;;;;;;;;;;5010400;28;20127;-50
2022/06/08 01:14:05;;;;;;;2.95;1.80;;;;;;;;;;5016765;28;20108;-51
2022/06/08 01:16:30;;;;;;;2.47;2.15;;;;;;;;;;5025386;28;20056;-51
2022/06/08 01:18:55;;;;;;;4.03;2.10;;;;;;;;;;5019629;28;20544;-51
2022/06/08 01:21:21;;;;;;;4.63;2.25;;;;;;;;;;5017831;28;20032;-53
2022/06/08 01:23:46;;;;;;;2.40;2.03;;;;;;;;;;5015640;28;20016;-49
2022/06/08 01:26:15;;;;;;;2.80;2.20;;;;;;;;;;5016253;28;20714;-51
2022/06/08 01:28:40;;;;;;;4.03;1.90;;;;;;;;;;5025774;28;20087;-51
2022/06/08 01:31:09;;;;;;;3.83;2.13;;;;;;;;;;5021948;28;20037;-51
2022/06/08 01:33:46;;;;;;;4.70;2.58;;;;;;;;;;5002359;28;20288;-51
2022/06/08 01:36:16;;;;;;;3.65;2.05;;;;;;;;;;5018191;28;20022;-51
2022/06/08 01:39:08;;;;;;;4.77;2.40;;;;;;;;;;5019918;28;20056;-51
2022/06/08 01:41:51;;;;;;;5.00;2.15;;;;;;;;;;5005904;28;20033;-52
2022/06/08 01:44:23;;;;;;;3.45;1.70;;;;;;;;;;5014181;28;20054;-52
2022/06/08 01:46:50;;;;;;;4.28;2.33;;;;;;;;;;5016950;28;20030;-50
2022/06/08 01:49:33;;;;;;;5.20;2.40;;;;;;;;;;4998994;28;20238;-52
2022/06/08 01:52:04;;;;;;;3.03;2.28;;;;;;;;;;5011306;28;20029;-51
2022/06/08 01:54:29;;;;;;;3.20;1.92;;;;;;;;;;5005033;28;20026;-52
2022/06/08 01:56:58;;;;;;;3.25;2.45;;;;;;;;;;5016634;28;20040;-51
2022/06/08 01:59:49;;;;;;;2.75;2.28;;;;;;;;;;5007867;28;20155;-52
2022/06/08 02:02:17;;;;;;;2.83;2.00;;;;;;;;;;4998726;28;20045;-51
2022/06/08 02:04:48;;;;;;;2.40;2.20;;;;;;;;;;5018460;28;20108;-51
2022/06/08 02:07:26;;;;;;;5.57;2.22;;;;;;;;;;5008787;28;20030;-51
2022/06/08 02:10:15;;;;;;;3.60;2.40;;;;;;;;;;5014386;28;20021;-52
2022/06/08 02:12:41;;;;;;;4.72;2.50;;;;;;;;;;4997754;28;20037;-51
2022/06/08 02:15:08;;;;;;;2.92;2.20;;;;;;;;;;5015044;28;20018;-51
2022/06/08 02:17:37;;;;;;;4.32;2.22;;;;;;;;;;5013719;28;20060;-52
2022/06/08 02:20:07;;;;;;;4.35;2.17;;;;;;;;;;5001832;28;20021;-51
2022/06/08 02:22:36;;;;;;;4.32;2.40;;;;;;;;;;5004221;28;20568;-51
2022/06/08 02:25:06;;;;;;;4.18;2.50;;;;;;;;;;5006556;28;20090;-51
2022/06/08 02:27:51;;;;;;;3.75;2.53;;;;;;;;;;5005729;28;20026;-50
2022/06/08 02:30:21;;;;;;;4.25;2.60;;;;;;;;;;4990828;28;20021;-51
2022/06/08 02:35:35;;;;;;;3.70;2.65;;;;;;;;;;5004750;28;20045;-51
2022/06/08 02:38:02;;;;;;;6.22;3.05;;;;;;;;;;4998045;28;20091;-51
2022/06/08 02:40:28;;;;;;;3.00;2.55;;;;;;;;;;5010235;28;20033;-51
2022/06/08 02:42:55;;;;;;;4.00;2.55;;;;;;;;;;5008037;28;20071;-51
2022/06/08 02:45:21;;;;;;;3.40;2.80;;;;;;;;;;5007541;28;20033;-51
2022/06/08 02:47:47;;;;;;;3.65;2.60;;;;;;;;;;5006488;28;20402;-51
2022/06/08 02:50:14;;;;;;;3.55;2.63;;;;;;;;;;5016009;28;20423;-51
2022/06/08 02:52:40;;;;;;;5.18;2.90;;;;;;;;;;5013464;28;20215;-52
2022/06/08 02:55:10;;;;;;;3.97;3.03;;;;;;;;;;5022325;28;20022;-53
2022/06/08 02:57:37;;;;;;;3.88;3.05;;;;;;;;;;5019544;28;20021;-50
2022/06/08 03:00:18;;;;;;;5.70;3.08;;;;;;;;;;5021438;28;20033;-51
2022/06/08 03:02:51;;;;;;;4.65;2.65;;;;;;;;;;4989744;28;20566;-51
2022/06/08 03:05:19;;;;;;;4.25;2.53;;;;;;;;;;5010645;28;20057;-51
2022/06/08 03:07:47;;;;;;;6.80;3.10;;;;;;;;;;5015531;28;20473;-50
2022/06/08 03:10:13;;;;;;;6.50;2.75;;;;;;;;;;5022067;28;20024;-51
2022/06/08 03:12:39;;;;;;;6.75;3.20;;;;;;;;;;5005062;28;20029;-52
2022/06/08 03:15:05;;;;;;;4.32;2.50;;;;;;;;;;5003077;28;20033;-51
2022/06/08 03:17:31;;;;;;;6.18;2.90;;;;;;;;;;5007486;28;20374;-51
2022/06/08 03:19:57;;;;;;;5.55;2.90;;;;;;;;;;5006285;28;20032;-51
2022/06/08 03:22:22;;;;;;;4.30;2.80;;;;;;;;;;5021944;28;20029;-51
2022/06/08 03:24:47;;;;;;;4.63;3.07;;;;;;;;;;4993361;28;20028;-51
2022/06/08 03:27:13;;;;;;;5.07;2.80;;;;;;;;;;4999308;28;20296;-51
2022/06/08 03:29:38;;;;;;;4.22;2.92;;;;;;;;;;5017519;28;20272;-52
2022/06/08 03:32:03;;;;;;;4.43;2.85;;;;;;;;;;5021645;28;20068;-51
2022/06/08 03:34:29;;;;;;;5.38;3.53;;;;;;;;;;5016748;28;20039;-51
2022/06/08 03:36:54;;;;;;;3.10;2.40;;;;;;;;;;5006596;28;20051;-51
2022/06/08 03:39:20;;;;;;;3.15;2.85;;;;;;;;;;5012292;28;20465;-51
2022/06/08 03:41:45;;;;;;;6.38;2.70;;;;;;;;;;5011580;28;20032;-51
2022/06/08 03:44:10;;;;;;;4.30;2.60;;;;;;;;;;5011076;28;20025;-51
2022/06/08 03:46:38;;;;;;;6.45;2.88;;;;;;;;;;5017279;28;20299;-51
2022/06/08 03:49:03;;;;;;;5.25;3.00;;;;;;;;;;5014737;28;20468;-51
2022/06/08 03:51:29;;;;;;;3.45;2.67;;;;;;;;;;5013308;28;20031;-51
2022/06/08 03:53:55;;;;;;;4.15;2.60;;;;;;;;;;5013347;28;20017;-51
2022/06/08 03:56:20;;;;;;;4.60;2.90;;;;;;;;;;5014074;28;20053;-51
2022/06/08 03:58:46;;;;;;;4.32;2.85;;;;;;;;;;5015670;28;20029;-50
2022/06/08 04:01:11;;;;;;;8.13;2.90;;;;;;;;;;5012051;28;20050;-51
2022/06/08 04:03:36;;;;;;;5.00;3.03;;;;;;;;;;5019937;28;20453;-51
2022/06/08 04:06:02;;;;;;;5.65;3.00;;;;;;;;;;5014864;28;20524;-49
2022/06/08 04:08:27;;;;;;;5.05;3.50;;;;;;;;;;5021775;28;20100;-52
2022/06/08 04:10:52;;;;;;;5.10;3.08;;;;;;;;;;5024413;28;20582;-50
2022/06/08 04:13:18;;;;;;;4.40;3.07;;;;;;;;;;5018841;28;20033;-51
2022/06/08 04:15:43;;;;;;;4.22;2.72;;;;;;;;;;5020886;28;20319;-51
2022/06/08 04:18:09;;;;;;;5.20;3.00;;;;;;;;;;5020308;28;20048;-51
2022/06/08 04:20:34;;;;;;;4.75;3.15;;;;;;;;;;5019931;28;20030;-51
2022/06/08 04:23:00;;;;;;;4.15;3.20;;;;;;;;;;5017816;28;20053;-50
2022/06/08 04:25:25;;;;;;;6.78;3.50;;;;;;;;;;5015899;28;20481;-51
2022/06/08 04:27:50;;;;;;;7.57;3.70;;;;;;;;;;5016328;28;20489;-51
2022/06/08 04:30:16;;;;;;;5.53;3.27;;;;;;;;;;5008217;28;20460;-51
2022/06/08 04:32:41;;;;;;;5.70;3.42;;;;;;;;;;5020007;28;20311;-50
2022/06/08 04:35:07;;;;;;;6.57;3.80;;;;;;;;;;5023992;28;20026;-50
2022/06/08 04:37:33;;;;;;;4.70;3.42;;;;;;;;;;5017883;28;20273;-53
2022/06/08 04:39:58;;;;;;;5.32;3.72;;;;;;;;;;5017996;28;20567;-53
2022/06/08 04:42:23;;;;;;;4.78;3.47;;;;;;;;;;5007953;28;20480;-54
2022/06/08 04:44:49;;;;;;;5.22;3.75;;;;;;;;;;5016820;28;20067;-51
2022/06/08 04:47:14;;;;;;;4.87;3.63;;;;;;;;;;5020763;28;20021;-50
2022/06/08 04:49:41;;;;;;;5.40;3.90;;;;;;;;;;5014357;28;20375;-52
2022/06/08 04:52:06;;;;;;;5.35;4.32;;;;;;;;;;5021134;28;20805;-51
2022/06/08 04:54:32;;;;;;;5.63;4.00;;;;;;;;;;5018963;28;20030;-51
2022/06/08 04:56:57;;;;;;;5.85;3.92;;;;;;;;;;4987749;28;20084;-52
2022/06/08 04:59:22;;;;;;;6.22;3.60;;;;;;;;;;4982374;28;20710;-51
2022/06/08 05:01:47;;;;;;;6.22;3.58;;;;;;;;;;5001540;28;20076;-50
2022/06/08 05:04:13;;;;;;;4.93;3.65;;;;;;;;;;4999956;28;20364;-51
2022/06/08 05:06:38;;;;;;;5.30;3.47;;;;;;;;;;5000265;28;20026;-52
2022/06/08 05:09:03;;;;;;;6.70;3.70;;;;;;;;;;5001306;28;20387;-51
2022/06/08 05:11:29;;;;;;;4.75;3.42;;;;;;;;;;5003581;28;20738;-51
2022/06/08 05:13:54;;;;;;;7.30;3.60;;;;;;;;;;4999625;28;20030;-52
2022/06/08 05:16:19;;;;;;;6.18;3.70;;;;;;;;;;5004405;28;20336;-53
2022/06/08 05:18:45;;;;;;;7.33;4.00;;;;;;;;;;5005758;28;20060;-52
2022/06/08 05:21:10;;;;;;;6.03;3.67;;;;;;;;;;5001667;28;20897;-51
2022/06/08 05:23:36;;;;;;;7.72;3.72;;;;;;;;;;5003729;28;20018;-51
2022/06/08 05:26:02;;;;;;;4.18;3.78;;;;;;;;;;5001784;28;20105;-52
2022/06/08 05:28:28;;;;;;;6.38;3.83;;;;;;;;;;4999598;28;20079;-52
2022/06/08 05:30:56;;;;;;;5.57;3.63;;;;;;;;;;4997889;28;20516;-51
2022/06/08 05:33:22;;;;;;;4.85;3.55;;;;;;;;;;4999579;28;20455;-54
2022/06/08 05:35:47;;;;;;;7.85;3.63;;;;;;;;;;5003773;28;20034;-52
2022/06/08 05:38:12;;;;;;;7.50;3.50;;;;;;;;;;4977357;28;20023;-52
2022/06/08 05:40:38;;;;;;;6.53;3.97;;;;;;;;;;5006283;28;20879;-49
2022/06/08 05:43:04;;;;;;;4.53;3.15;;;;;;;;;;5000593;28;20030;-50
2022/06/08 05:45:29;;;;;;;7.30;3.47;;;;;;;;;;4986731;28;20026;-52
2022/06/08 05:47:55;;;;;;;11.13;4.00;;;;;;;;;;4998670;28;20476;-51
2022/06/08 05:50:20;;;;;;;6.82;4.10;;;;;;;;;;4999314;28;20021;-50
2022/06/08 05:52:46;;;;;;;6.43;2.97;;;;;;;;;;4997197;28;20014;-51
2022/06/08 05:55:13;;;;;;;3.95;2.95;;;;;;;;;;5001908;28;20289;-51
2022/06/08 05:57:38;;;;;;;5.80;2.97;;;;;;;;;;4999013;28;20113;-51
2022/06/08 06:00:04;;;;;;;5.53;2.80;;;;;;;;;;4996922;28;20149;-51
2022/06/08 06:02:29;;;;;;;4.30;2.90;;;;;;;;;;4999425;28;20391;-51
2022/06/08 06:04:55;;;;;;;5.10;2.85;;;;;;;;;;5000614;28;20636;-51
2022/06/08 06:07:20;;;;;;;4.68;2.67;;;;;;;;;;4996143;28;20501;-51
2022/06/08 06:09:45;;;;;;;5.18;2.80;;;;;;;;;;4998341;28;20017;-51
2022/06/08 06:12:10;;;;;;;7.40;3.27;;;;;;;;;;4999416;28;20032;-50
2022/06/08 06:14:36;;;;;;;6.28;3.20;;;;;;;;;;4997709;28;20751;-52
2022/06/08 06:17:01;;;;;;;6.07;3.00;;;;;;;;;;4982076;28;20121;-51
2022/06/08 06:19:27;;;;;;;6.45;3.17;;;;;;;;;;4996265;28;20032;-51
2022/06/08 06:21:52;;;;;;;7.57;3.10;;;;;;;;;;5000245;28;20481;-52
2022/06/08 06:24:17;;;;;;;4.80;2.70;;;;;;;;;;4997052;28;20026;-51
2022/06/08 06:26:43;;;;;;;6.43;3.00;;;;;;;;;;4997535;28;20284;-51
2022/06/08 06:29:10;;;;;;;5.05;2.88;;;;;;;;;;5001898;28;20041;-51
2022/06/08 06:31:39;;;;;;;5.22;2.65;;;;;;;;;;4998944;28;20085;-51
2022/06/08 06:34:05;;;;;;;3.63;2.75;;;;;;;;;;4978188;28;20610;-50
2022/06/08 06:36:30;;;;;;;5.03;2.60;;;;;;;;;;5002017;28;20045;-51
2022/06/08 06:38:55;;;;;;;4.57;2.40;;;;;;;;;;4996872;28;20520;-50
2022/06/08 06:41:21;;;;;;;4.77;2.57;;;;;;;;;;4999558;28;20817;-50
2022/06/08 06:43:47;;;;;;;6.05;2.70;;;;;;;;;;4998257;28;20102;-51
2022/06/08 06:46:13;;;;;;;3.42;2.80;;;;;;;;;;4998803;28;20109;-51
2022/06/08 06:48:38;;;;;;;4.53;2.47;;;;;;;;;;4994831;28;20101;-51
2022/06/08 06:51:04;;;;;;;3.10;2.38;;;;;;;;;;5000908;28;20101;-51
2022/06/08 06:53:29;;;;;;;4.65;2.80;;;;;;;;;;5001920;28;20041;-51
2022/06/08 06:55:55;;;;;;;7.65;2.80;;;;;;;;;;4998838;28;20489;-51
2022/06/08 06:58:20;;;;;;;6.72;2.80;;;;;;;;;;5001843;28;20021;-51
2022/06/08 07:00:45;;;;;;;4.30;2.80;;;;;;;;;;4999848;28;20057;-49
2022/06/08 07:03:10;;;;;;;7.27;3.00;;;;;;;;;;4998168;28;20863;-50
2022/06/08 07:05:36;;;;;;;3.97;3.10;;;;;;;;;;4993729;28;20308;-50
2022/06/08 07:08:02;;;;;;;5.32;3.30;;;;;;;;;;4998592;28;20267;-52
2022/06/08 07:10:27;;;;;;;4.85;2.78;;;;;;;;;;5000601;28;20068;-52
2022/06/08 07:12:52;;;;;;;7.82;3.58;;;;;;;;;;4995569;28;20057;-52
2022/06/08 07:15:19;;;;;;;5.80;3.33;;;;;;;;;;4996164;28;20065;-51
2022/06/08 07:17:44;;;;;;;3.85;2.63;;;;;;;;;;4993143;28;20285;-51
2022/06/08 07:20:10;;;;;;;7.18;3.22;;;;;;;;;;4998860;28;20188;-50
2022/06/08 07:22:35;;;;;;;6.60;2.65;;;;;;;;;;5000240;28;20458;-51
2022/06/08 07:25:00;;;;;;;5.75;3.10;;;;;;;;;;4995142;28;20022;-51
2022/06/08 07:27:26;;;;;;;5.05;2.95;;;;;;;;;;4996107;28;20820;-51
2022/06/08 07:29:51;;;;;;;4.05;2.60;;;;;;;;;;5003427;28;20094;-50
2022/06/08 07:32:16;;;;;;;7.00;3.88;;;;;;;;;;5001371;28;20056;-50
2022/06/08 07:34:42;;;;;;;3.67;3.03;;;;;;;;;;5002868;28;20104;-51
2022/06/08 07:37:07;;;;;;;6.97;3.07;;;;;;;;;;5000475;28;20507;-50
2022/06/08 07:39:32;;;;;;;6.03;3.15;;;;;;;;;;5006627;28;20273;-51
2022/06/08 07:41:58;;;;;;;5.70;3.03;;;;;;;;;;5005847;28;20117;-51
2022/06/08 07:44:23;;;;;;;5.22;2.85;;;;;;;;;;4980576;28;20018;-52
2022/06/08 07:46:48;;;;;;;4.35;2.90;;;;;;;;;;5000177;28;20057;-50
2022/06/08 07:51:58;;;;;;;6.75;2.90;;;;;;;;;;5005713;28;20040;-50
2022/06/08 07:54:24;;;;;;;5.57;2.97;;;;;;;;;;5003027;28;20030;-51
2022/06/08 07:56:51;;;;;;;6.00;3.90;;;;;;;;;;5003742;28;20432;-51
2022/06/08 07:59:16;;;;;;;5.38;3.10;;;;;;;;;;5005912;28;20022;-50
2022/06/08 08:01:42;;;;;;;7.35;2.90;;;;;;;;;;5003285;28;21730;-51
2022/06/08 08:04:07;;;;;;;4.65;2.60;;;;;;;;;;5005797;28;20037;-50
2022/06/08 08:06:32;;;;;;;4.60;2.70;;;;;;;;;;5008986;28;20466;-50
2022/06/08 08:09:00;;;;;;;5.40;2.73;;;;;;;;;;5001810;28;20269;-51
2022/06/08 08:11:26;;;;;;;3.42;2.58;;;;;;;;;;5003597;28;20336;-51
2022/06/08 08:13:51;;;;;;;3.03;2.40;;;;;;;;;;4996125;28;20139;-52
2022/06/08 08:16:17;;;;;;;4.97;2.70;;;;;;;;;;5004031;28;20573;-49
2022/06/08 08:18:42;;;;;;;3.65;2.60;;;;;;;;;;5005131;28;20545;-50
2022/06/08 08:21:07;;;;;;;4.32;2.50;;;;;;;;;;5005404;28;20033;-51
2022/06/08 08:23:33;;;;;;;3.67;2.60;;;;;;;;;;5007002;28;20465;-51
2022/06/08 08:25:58;;;;;;;5.38;2.60;;;;;;;;;;5004657;28;20034;-51
2022/06/08 08:28:23;;;;;;;5.13;3.03;;;;;;;;;;5004639;28;20397;-49
2022/06/08 08:30:48;;;;;;;4.25;2.67;;;;;;;;;;4999323;28;20273;-50
2022/06/08 08:33:14;;;;;;;5.37;2.60;;;;;;;;;;5003048;28;20525;-50
2022/06/08 08:35:39;;;;;;;4.07;2.10;;;;;;;;;;5006261;28;20293;-51
2022/06/08 08:38:05;;;;;;;3.63;2.20;;;;;;;;;;5002838;28;20045;-49
2022/06/08 08:40:43;;;;;;;3.58;2.30;;;;;;;;;;4998484;28;20097;-49
2022/06/08 08:43:09;;;;;;;4.47;2.38;;;;;;;;;;5006894;28;20109;-50
2022/06/08 08:45:37;;;;;;;3.72;2.40;;;;;;;;;;4994014;28;20132;-51
2022/06/08 08:48:04;;;;;;;3.50;2.33;;;;;;;;;;4999063;28;20486;-51
2022/06/08 08:50:33;;;;;;;3.08;1.95;;;;;;;;;;5003361;28;20026;-51
2022/06/08 08:53:25;;;;;;;3.05;2.10;;;;;;;;;;5006520;28;20029;-51
2022/06/08 08:55:50;;;;;;;3.80;1.90;;;;;;;;;;5001761;28;20037;-51
2022/06/08 08:58:17;;;;;;;2.80;2.03;;;;;;;;;;5005042;28;20030;-50
2022/06/08 09:00:48;;;;;;;3.33;2.03;;;;;;;;;;5003288;28;20296;-51
2022/06/08 09:03:24;;;;;;;4.85;2.63;;;;;;;;;;5005078;28;20025;-52
2022/06/08 09:05:51;;;;;;;3.55;1.90;;;;;;;;;;4988359;28;20076;-50
2022/06/08 09:08:17;;;;;;;3.17;2.00;;;;;;;;;;5003722;28;20030;-53
2022/06/08 09:10:42;;;;;;;4.05;1.85;;;;;;;;;;5006009;28;20540;-52
2022/06/08 09:13:12;;;;;;;3.40;1.80;;;;;;;;;;5000250;28;20528;-51
2022/06/08 09:15:45;;;;;;;4.15;2.05;;;;;;;;;;5004779;28;20048;-51
2022/06/08 09:18:20;;;;;;;3.78;1.95;;;;;;;;;;5005989;28;20030;-51
2022/06/08 09:20:46;;;;;;;3.90;1.95;;;;;;;;;;5004028;28;20014;-51
2022/06/08 09:23:23;;;;;;;4.47;1.92;;;;;;;;;;4985821;28;20486;-52
2022/06/08 09:26:07;;;;;;;4.57;1.90;;;;;;;;;;5003235;28;20028;-50
2022/06/08 09:28:32;;;;;;;3.42;1.95;;;;;;;;;;5004676;28;20032;-51
2022/06/08 09:30:58;;;;;;;6.07;1.95;;;;;;;;;;5002893;28;20029;-52
2022/06/08 09:33:24;;;;;;;2.85;1.83;;;;;;;;;;5003926;28;20053;-51
2022/06/08 09:35:59;;;;;;;2.88;1.73;;;;;;;;;;5004988;28;20125;-52
2022/06/08 09:38:25;;;;;;;2.40;1.50;;;;;;;;;;5006672;28;20025;-51
2022/06/08 09:41:06;;;;;;;2.55;1.65;;;;;;;;;;5005767;28;20473;-52
2022/06/08 09:43:41;;;;;;;4.32;1.75;;;;;;;;;;5005522;28;20029;-51
2022/06/08 09:46:10;;;;;;;2.47;1.58;;;;;;;;;;4986044;28;20424;-50
2022/06/08 09:51:43;;;;;;;4.32;1.63;;;;;;;;;;5005320;28;20096;-50
2022/06/08 09:54:09;;;;;;;3.33;1.58;;;;;;;;;;5003213;28;20105;-50
2022/06/08 09:56:40;;;;;;;2.63;1.50;;;;;;;;;;5005504;28;20257;-51
2022/06/08 09:59:05;;;;;;;2.72;1.60;;;;;;;;;;5000244;28;20042;-52
2022/06/08 10:01:37;;;;;;;2.07;1.50;;;;;;;;;;5004197;28;20029;-50
2022/06/08 10:04:29;;;;;;;3.40;1.50;;;;;;;;;;4988105;28;20372;-51
2022/06/08 10:07:04;;;;;;;3.70;1.73;;;;;;;;;;4976187;28;20069;-51
2022/06/08 10:09:44;;;;;;;3.53;1.48;;;;;;;;;;5002087;28;20017;-52
2022/06/08 10:12:09;;;;;;;2.40;1.50;;;;;;;;;;4999590;28;20185;-53
2022/06/08 10:14:38;;;;;;;2.23;1.53;;;;;;;;;;5003602;28;20138;-54
2022/06/08 10:17:17;;;;;;;3.50;1.40;;;;;;;;;;5001998;28;20315;-53
2022/06/08 10:19:45;;;;;;;2.08;1.30;;;;;;;;;;4989080;28;20053;-53
2022/06/08 10:22:11;;;;;;;2.72;1.40;;;;;;;;;;5005993;28;20033;-51
2022/06/08 10:24:59;;;;;;;3.67;1.70;;;;;;;;;;5000790;28;20481;-52
2022/06/08 10:27:28;;;;;;;2.88;1.40;;;;;;;;;;4968937;28;20044;-51
2022/06/08 10:30:03;;;;;;;3.67;1.47;;;;;;;;;;4986949;28;20034;-51
2022/06/08 10:32:33;;;;;;;2.70;1.30;;;;;;;;;;5002539;28;20058;-55
2022/06/08 10:34:59;;;;;;;2.03;1.60;;;;;;;;;;5000978;28;20018;-51
2022/06/08 10:37:29;;;;;;;2.85;1.27;;;;;;;;;;4996907;28;20022;-52
2022/06/08 10:39:55;;;;;;;3.97;1.73;;;;;;;;;;5001661;28;20022;-52
2022/06/08 10:42:41;;;;;;;2.35;1.10;;;;;;;;;;4996929;28;20455;-49
2022/06/08 10:45:27;;;;;;;3.10;1.40;;;;;;;;;;4996090;28;20017;-52
2022/06/08 10:48:01;;;;;;;4.18;1.25;;;;;;;;;;5001825;28;20199;-52
2022/06/08 10:50:47;;;;;;;2.88;1.63;;;;;;;;;;5002517;28;20065;-52
2022/06/08 10:56:24;;;;;;;1.83;1.38;;;;;;;;;;5002951;28;20559;-51
2022/06/08 10:58:55;;;;;;;2.80;1.50;;;;;;;;;;5000456;28;20400;-51
2022/06/08 11:01:37;;;;;;;1.98;1.30;;;;;;;;;;5003442;28;20021;-51
2022/06/08 11:04:05;;;;;;;2.00;1.38;;;;;;;;;;5002169;28;20531;-51
2022/06/08 11:06:46;;;;;;;2.17;1.50;;;;;;;;;;4986380;28;20031;-52
2022/06/08 11:09:39;;;;;;;1.80;1.40;;;;;;;;;;4980787;28;20026;-50
2022/06/08 11:12:16;;;;;;;2.00;1.50;;;;;;;;;;4992502;28;20073;-52
2022/06/08 11:14:44;;;;;;;2.53;1.48;;;;;;;;;;5003250;28;20021;-52
2022/06/08 11:17:10;;;;;;;3.08;1.42;;;;;;;;;;5003114;28;20088;-53
2022/06/08 11:19:36;;;;;;;2.85;1.83;;;;;;;;;;5002953;28;20585;-52
2022/06/08 11:22:04;;;;;;;2.10;1.40;;;;;;;;;;4984627;28;20030;-51
2022/06/08 11:24:37;;;;;;;2.78;1.40;;;;;;;;;;5002679;28;20021;-50
2022/06/08 11:27:12;;;;;;;3.47;1.42;;;;;;;;;;4997764;28;20033;-50
2022/06/08 11:29:38;;;;;;;2.88;1.50;;;;;;;;;;4999547;28;20459;-50
2022/06/08 11:32:04;;;;;;;2.25;1.50;;;;;;;;;;5002938;28;20141;-54
2022/06/08 11:34:32;;;;;;;2.40;1.27;;;;;;;;;;5002645;28;20496;-52
2022/06/08 11:37:04;;;;;;;2.20;1.52;;;;;;;;;;5003170;28;20081;-52
2022/06/08 11:39:48;;;;;;;3.42;1.60;;;;;;;;;;5003848;28;20018;-52
2022/06/08 11:42:29;;;;;;;3.22;1.48;;;;;;;;;;5004313;28;20081;-50
2022/06/08 11:45:07;;;;;;;3.00;1.63;;;;;;;;;;4991287;28;20018;-49
2022/06/08 11:47:36;;;;;;;2.97;1.40;;;;;;;;;;5002456;28;20072;-52
2022/06/08 11:50:12;;;;;;;3.90;1.57;;;;;;;;;;4984359;28;20113;-51
2022/06/08 11:52:38;;;;;;;4.28;2.10;;;;;;;;;;4999868;28;21142;-51
2022/06/08 11:55:05;;;;;;;4.82;1.65;;;;;;;;;;4995513;28;20113;-51
2022/06/08 11:57:31;;;;;;;2.40;1.63;;;;;;;;;;4982560;28;20101;-50
2022/06/08 11:59:56;;;;;;;3.38;1.45;;;;;;;;;;5001652;28;20116;-51
2022/06/08 12:02:23;;;;;;;3.53;1.52;;;;;;;;;;5002576;28;20010;-50
2022/06/08 12:04:50;;;;;;;2.58;1.60;;;;;;;;;;5009402;28;20025;-51
2022/06/08 12:07:42;;;;;;;2.30;1.80;;;;;;;;;;5004383;28;20033;-52
2022/06/08 12:10:10;;;;;;;3.35;1.80;;;;;;;;;;4998471;28;20156;-49
2022/06/08 12:12:35;;;;;;;3.10;1.70;;;;;;;;;;5001454;28;20504;-52
2022/06/08 12:15:19;;;;;;;2.87;1.40;;;;;;;;;;4995888;28;20100;-52
2022/06/08 12:17:45;;;;;;;2.78;1.55;;;;;;;;;;5007721;28;20025;-51
2022/06/08 12:20:22;;;;;;;2.08;1.30;;;;;;;;;;5004975;28;20021;-50
2022/06/08 12:22:52;;;;;;;3.20;1.60;;;;;;;;;;5006051;28;20088;-52
2022/06/08 12:25:24;;;;;;;6.18;1.92;;;;;;;;;;5003774;28;20060;-49
2022/06/08 12:27:53;;;;;;;4.85;1.60;;;;;;;;;;5004151;28;20026;-51
2022/06/08 12:30:24;;;;;;;3.95;1.45;;;;;;;;;;5002964;28;20058;-49
2022/06/08 12:32:52;;;;;;;2.80;1.60;;;;;;;;;;5007201;28;20076;-50
2022/06/08 12:35:22;;;;;;;4.38;1.48;;;;;;;;;;4996191;28;20018;-50
2022/06/08 12:37:47;;;;;;;3.85;1.50;;;;;;;;;;4997712;28;20764;-51
2022/06/08 12:40:15;;;;;;;2.80;1.58;;;;;;;;;;4999443;28;20037;-50
2022/06/08 12:42:51;;;;;;;2.78;1.25;;;;;;;;;;5001194;28;20022;-51
2022/06/08 12:45:25;;;;;;;2.70;1.60;;;;;;;;;;4998510;28;20021;-50
2022/06/08 12:47:51;;;;;;;2.53;1.60;;;;;;;;;;5002203;28;20489;-51
2022/06/08 12:50:20;;;;;;;2.10;1.30;;;;;;;;;;5004825;28;20025;-51
2022/06/08 12:52:46;;;;;;;3.10;1.50;;;;;;;;;;4999822;28;20281;-51
2022/06/08 12:55:13;;;;;;;3.47;1.42;;;;;;;;;;5000551;28;20276;-50
2022/06/08 12:57:38;;;;;;;4.50;1.58;;;;;;;;;;5003167;28;20936;-50
2022/06/08 13:00:07;;;;;;;5.03;1.70;;;;;;;;;;4998425;28;20049;-51
2022/06/08 13:02:33;;;;;;;3.33;1.53;;;;;;;;;;5002676;28;20025;-52
2022/06/08 13:04:59;;;;;;;2.30;1.65;;;;;;;;;;5000900;28;20022;-51
2022/06/08 13:07:27;;;;;;;4.07;1.67;;;;;;;;;;5004530;28;20045;-51
2022/06/08 13:09:52;;;;;;;2.20;1.50;;;;;;;;;;5003863;28;20014;-49
2022/06/08 13:12:21;;;;;;;3.60;1.98;;;;;;;;;;5002238;28;20038;-50
2022/06/08 13:14:47;;;;;;;2.67;1.40;;;;;;;;;;5003422;28;20464;-50
2022/06/08 13:17:12;;;;;;;4.10;1.65;;;;;;;;;;4998405;28;20033;-50
2022/06/08 13:19:37;;;;;;;2.28;1.52;;;;;;;;;;5001886;28;20101;-51
2022/06/08 13:22:03;;;;;;;2.45;1.45;;;;;;;;;;5005279;28;20489;-51
2022/06/08 13:24:28;;;;;;;2.35;1.40;;;;;;;;;;4998942;28;20022;-51
2022/06/08 13:26:54;;;;;;;2.10;1.47;;;;;;;;;;5002469;28;20615;-49
2022/06/08 13:29:20;;;;;;;3.10;1.40;;;;;;;;;;4997947;28;20627;-51
2022/06/08 13:31:46;;;;;;;2.38;1.40;;;;;;;;;;5001928;28;20076;-51
2022/06/08 13:34:11;;;;;;;2.90;1.52;;;;;;;;;;5002115;28;20484;-50
2022/06/08 13:36:41;;;;;;;2.53;1.50;;;;;;;;;;4983903;28;20086;-51
2022/06/08 13:39:06;;;;;;;3.75;1.70;;;;;;;;;;4994876;28;20280;-51
2022/06/08 13:41:32;;;;;;;2.60;1.63;;;;;;;;;;5000404;28;20028;-50
2022/06/08 13:43:57;;;;;;;2.17;1.50;;;;;;;;;;4979602;28;20274;-51
2022/06/08 13:46:27;;;;;;;2.57;1.40;;;;;;;;;;5000948;28;20018;-51
2022/06/08 13:48:52;;;;;;;3.50;1.90;;;;;;;;;;5000940;28;20319;-51
2022/06/08 13:51:18;;;;;;;3.78;1.60;;;;;;;;;;5002000;28;20471;-50
2022/06/08 13:53:44;;;;;;;3.50;1.80;;;;;;;;;;5002096;28;20037;-53
2022/06/08 13:56:10;;;;;;;2.15;1.50;;;;;;;;;;4996466;28;20042;-50
2022/06/08 13:58:35;;;;;;;2.47;1.67;;;;;;;;;;4981457;28;20117;-51
2022/06/08 14:01:02;;;;;;;2.10;1.20;;;;;;;;;;4999816;28;20117;-50
2022/06/08 14:03:31;;;;;;;2.75;1.42;;;;;;;;;;5004090;28;20395;-51
2022/06/08 14:14:10;;;;;;;4.32;1.90;;;;;;;;;;4992523;28;20758;-49
2022/06/08 14:16:36;;;;;;;4.07;2.05;;;;;;;;;;5004126;28;20144;-51
2022/06/08 14:19:07;;;;;;;2.78;2.03;;;;;;;;;;5001583;28;20033;-50
2022/06/08 14:21:32;;;;;;;3.97;2.00;;;;;;;;;;4998883;28;20029;-54
2022/06/08 14:23:59;;;;;;;3.72;2.03;;;;;;;;;;5000951;28;20109;-53
2022/06/08 14:26:25;;;;;;;3.47;2.10;;;;;;;;;;4999259;28;20030;-52
2022/06/08 14:28:51;;;;;;;2.30;2.00;;;;;;;;;;5004975;28;20044;-52
2022/06/08 14:31:21;;;;;;;3.80;1.55;;;;;;;;;;4986648;28;21424;-52
2022/06/08 14:33:47;;;;;;;4.47;2.30;;;;;;;;;;4985878;28;20022;-53
2022/06/08 14:36:15;;;;;;;4.10;2.03;;;;;;;;;;4964398;28;20038;-52
2022/06/08 14:38:41;;;;;;;4.83;2.33;;;;;;;;;;4979485;28;20034;-52
2022/06/08 14:41:06;;;;;;;5.43;2.65;;;;;;;;;;4982690;28;20037;-51
2022/06/08 14:43:34;;;;;;;6.20;3.33;;;;;;;;;;4963997;28;20034;-53
2022/06/08 14:45:59;;;;;;;4.35;3.60;;;;;;;;;;4981603;28;20041;-52
2022/06/08 14:48:26;;;;;;;6.65;4.10;;;;;;;;;;4965561;28;20358;-52
2022/06/08 14:50:51;;;;;;;6.93;4.60;;;;;;;;;;4982084;28;20026;-52
2022/06/08 14:53:17;;;;;;;7.68;5.20;;;;;;;;;;4982431;28;20563;-50
2022/06/08 14:58:26;;;;;;;7.72;5.68;;;;;;;;;;4979363;28;20077;-51
2022/06/08 15:00:52;;;;;;;9.57;5.68;;;;;;;;;;4982272;28;20410;-51
2022/06/08 15:03:18;;;;;;;7.47;5.50;;;;;;;;;;4981704;28;20046;-51
2022/06/08 15:05:43;;;;;;;9.43;5.82;;;;;;;;;;4985272;28;20057;-50
2022/06/08 15:08:09;;;;;;;10.07;5.45;;;;;;;;;;4978676;28;20026;-51
2022/06/08 15:11:57;;;;;;;13.40;5.15;;;;;;;;;;4983108;28;20026;-50